Ana Sayfa
METAR-TAF:

METAR-TAF

Havaalanları :

New Castle, Pensilvanya, Amerika Birleşik Devletleri

Enlem: 41-01-31N, Boylam: 080-24-48W, yükseklik: 326 m

Güncel hava durumu gözlemi

Rapor saat 03:56 UTC de 58 dakika önce yapıldı.
Rüzgar kuzeybatıdan 5 kt
Sıcaklık 5°C
Nem 52%
Basınç 1017 hPa
Görüş mesafesi: 16.1 km
Açık gökyüzü

METAR: KUCP 030356Z AUTO 32005KT 10SM CLR 05/M04 A3003 RMK AO2 SLP188 T00501044 PNO $

Saat: 00:54 (04:54 UTC)


TAF: eksik

4.000'den fazla havaalanı için hava durumu gözlemleri ve tahminleri (METAR ve TAF raporları).

Kullanılabilir istasyonlar harita üzerinde sarı ve kırmızı noktalarla gösterilir.

İstasyonun adını görmek için fareyi noktanın üzerinde gezdirin.

Sonrasında hava gözlem ve tahminlerini görmek için tıklayın.

Haritayı değiştirmek için: yaklaştırmak için siyah artı işaretli yeşil düğmeye ve uzaklaştırmak için de eksi işaretli düğmeye hızla tıklayın; bitişik haritalar için yeşil okları kullanın.


METAR-TAF: